KDTW/DTW METAR and TAF weather

Enter ICAO airport designator
Station Type Date Time Source
KDTW METAR 2019/12/13 00:53 UTC NOAA

KDTW 130053Z 17009KT 9SM BKN220 01/M04 A3024 RMK AO2 SLP250 T00061039


Station Type Date Time Source
KDTW Decoded METAR 2019/12/13 00:53 UTC NOAA

DETROIT METROPOLITAN, MI, United States (KDTW) 42-14N 83-20W 195M
Dec 12, 2019 - 07:53 PM EST / 2019.12.13 0053 UTC
Wind: from the S (170 degrees) at 10 MPH (9 KT):0
Visibility: 9 mile(s):0
Sky conditions: mostly cloudy
Temperature: 33.1 F (0.6 C)
Windchill: 24 F (-4 C):1
Dew Point: 25.0 F (-3.9 C)
Relative Humidity: 71%
Pressure (altimeter): 30.24 in. Hg (1024 hPa)
ob: KDTW 130053Z 17009KT 9SM BKN220 01/M04 A3024 RMK AO2 SLP250 T00061039
cycle: 1

Station Type Date Time Source
KDTW TAF 2019/12/12 21:03 UTC NOAA

TAF
AMD KDTW 122100Z 1221/1324 17011KT P6SM FEW200
FM130000 18008KT P6SM FEW250 WS017/20042KT
FM131200 19009KT P6SM OVC120

Example: see airport list